sensor_id;sensor_type;location;lat;lon;timestamp;P1;durP1;ratioP1;P2;durP2;ratioP2
18526;SDS011;9393;42.158;24.748;2023-06-14T00:02:20;6.93;;;5.72;;
18526;SDS011;9393;42.158;24.748;2023-06-14T00:05:24;6.65;;;5.25;;
18526;SDS011;9393;42.158;24.748;2023-06-14T00:08:28;9.05;;;5.55;;
18526;SDS011;9393;42.158;24.748;2023-06-14T00:11:34;9.18;;;5.85;;
18526;SDS011;9393;42.158;24.748;2023-06-14T00:14:38;6.50;;;5.88;;
18526;SDS011;9393;42.158;24.748;2023-06-14T00:17:42;6.07;;;5.47;;
18526;SDS011;9393;42.158;24.748;2023-06-14T00:20:50;6.55;;;5.95;;
18526;SDS011;9393;42.158;24.748;2023-06-14T00:23:54;6.97;;;5.70;;
18526;SDS011;9393;42.158;24.748;2023-06-14T00:27:00;8.35;;;5.80;;
18526;SDS011;9393;42.158;24.748;2023-06-14T00:30:05;7.47;;;5.95;;
18526;SDS011;9393;42.158;24.748;2023-06-14T00:33:10;6.57;;;5.57;;
18526;SDS011;9393;42.158;24.748;2023-06-14T00:36:17;8.18;;;6.68;;
18526;SDS011;9393;42.158;24.748;2023-06-14T00:39:21;8.70;;;6.10;;
18526;SDS011;9393;42.158;24.748;2023-06-14T00:42:27;7.65;;;6.15;;
18526;SDS011;9393;42.158;24.748;2023-06-14T00:45:32;10.88;;;5.72;;
18526;SDS011;9393;42.158;24.748;2023-06-14T00:48:38;7.38;;;6.07;;
18526;SDS011;9393;42.158;24.748;2023-06-14T00:51:43;6.30;;;5.70;;
18526;SDS011;9393;42.158;24.748;2023-06-14T00:54:48;8.63;;;6.22;;
18526;SDS011;9393;42.158;24.748;2023-06-14T00:57:54;8.05;;;6.43;;
18526;SDS011;9393;42.158;24.748;2023-06-14T01:00:59;7.85;;;5.90;;
18526;SDS011;9393;42.158;24.748;2023-06-14T01:04:04;8.82;;;6.30;;
18526;SDS011;9393;42.158;24.748;2023-06-14T01:07:10;7.65;;;5.70;;
18526;SDS011;9393;42.158;24.748;2023-06-14T01:10:25;8.32;;;6.45;;
18526;SDS011;9393;42.158;24.748;2023-06-14T01:13:37;7.30;;;5.70;;
18526;SDS011;9393;42.158;24.748;2023-06-14T01:16:45;8.20;;;5.70;;
18526;SDS011;9393;42.158;24.748;2023-06-14T01:19:55;8.20;;;5.82;;
18526;SDS011;9393;42.158;24.748;2023-06-14T01:23:02;11.27;;;6.15;;
18526;SDS011;9393;42.158;24.748;2023-06-14T01:26:06;7.85;;;5.65;;
18526;SDS011;9393;42.158;24.748;2023-06-14T01:29:10;10.75;;;6.25;;
18526;SDS011;9393;42.158;24.748;2023-06-14T01:32:19;6.53;;;5.72;;
18526;SDS011;9393;42.158;24.748;2023-06-14T01:35:24;7.38;;;6.43;;
18526;SDS011;9393;42.158;24.748;2023-06-14T01:38:30;7.18;;;6.07;;
18526;SDS011;9393;42.158;24.748;2023-06-14T01:41:35;9.13;;;5.78;;
18526;SDS011;9393;42.158;24.748;2023-06-14T01:44:40;6.00;;;5.40;;
18526;SDS011;9393;42.158;24.748;2023-06-14T01:47:46;6.97;;;6.03;;
18526;SDS011;9393;42.158;24.748;2023-06-14T01:50:52;8.38;;;5.57;;
18526;SDS011;9393;42.158;24.748;2023-06-14T01:53:58;6.50;;;5.05;;
18526;SDS011;9393;42.158;24.748;2023-06-14T01:57:02;7.38;;;5.43;;
18526;SDS011;9393;42.158;24.748;2023-06-14T02:00:10;7.15;;;5.50;;
18526;SDS011;9393;42.158;24.748;2023-06-14T02:03:15;7.70;;;5.28;;
18526;SDS011;9393;42.158;24.748;2023-06-14T02:06:21;8.00;;;5.80;;
18526;SDS011;9393;42.158;24.748;2023-06-14T02:09:27;8.73;;;5.78;;
18526;SDS011;9393;42.158;24.748;2023-06-14T02:12:31;6.38;;;5.40;;
18526;SDS011;9393;42.158;24.748;2023-06-14T02:15:35;7.03;;;5.35;;
18526;SDS011;9393;42.158;24.748;2023-06-14T02:18:40;6.95;;;5.30;;
18526;SDS011;9393;42.158;24.748;2023-06-14T02:21:44;7.47;;;5.57;;
18526;SDS011;9393;42.158;24.748;2023-06-14T02:24:50;6.57;;;5.18;;
18526;SDS011;9393;42.158;24.748;2023-06-14T02:28:03;5.85;;;5.25;;
18526;SDS011;9393;42.158;24.748;2023-06-14T02:31:07;8.65;;;5.05;;
18526;SDS011;9393;42.158;24.748;2023-06-14T02:34:11;6.82;;;5.10;;
18526;SDS011;9393;42.158;24.748;2023-06-14T02:37:16;7.85;;;5.00;;
18526;SDS011;9393;42.158;24.748;2023-06-14T02:40:22;6.47;;;5.03;;
18526;SDS011;9393;42.158;24.748;2023-06-14T02:43:26;6.65;;;5.00;;
18526;SDS011;9393;42.158;24.748;2023-06-14T02:46:32;6.78;;;5.50;;
18526;SDS011;9393;42.158;24.748;2023-06-14T02:49:37;6.30;;;5.50;;
18526;SDS011;9393;42.158;24.748;2023-06-14T02:52:41;6.90;;;5.15;;
18526;SDS011;9393;42.158;24.748;2023-06-14T02:55:48;7.25;;;5.78;;
18526;SDS011;9393;42.158;24.748;2023-06-14T02:58:52;7.25;;;5.40;;
18526;SDS011;9393;42.158;24.748;2023-06-14T03:01:57;8.27;;;5.63;;
18526;SDS011;9393;42.158;24.748;2023-06-14T03:05:01;8.73;;;5.78;;
18526;SDS011;9393;42.158;24.748;2023-06-14T03:08:06;8.25;;;5.85;;
18526;SDS011;9393;42.158;24.748;2023-06-14T03:11:12;8.43;;;5.30;;
18526;SDS011;9393;42.158;24.748;2023-06-14T03:14:18;6.45;;;5.63;;
18526;SDS011;9393;42.158;24.748;2023-06-14T03:17:23;8.23;;;5.82;;
18526;SDS011;9393;42.158;24.748;2023-06-14T03:20:33;8.30;;;6.28;;
18526;SDS011;9393;42.158;24.748;2023-06-14T03:23:38;6.22;;;5.47;;
18526;SDS011;9393;42.158;24.748;2023-06-14T03:26:45;8.25;;;6.10;;
18526;SDS011;9393;42.158;24.748;2023-06-14T03:29:49;8.93;;;6.65;;
18526;SDS011;9393;42.158;24.748;2023-06-14T03:32:54;10.75;;;5.85;;
18526;SDS011;9393;42.158;24.748;2023-06-14T03:36:01;7.40;;;5.57;;
18526;SDS011;9393;42.158;24.748;2023-06-14T03:39:07;8.05;;;5.72;;
18526;SDS011;9393;42.158;24.748;2023-06-14T03:42:14;8.45;;;6.35;;
18526;SDS011;9393;42.158;24.748;2023-06-14T03:45:19;7.95;;;6.10;;
18526;SDS011;9393;42.158;24.748;2023-06-14T03:48:24;6.85;;;5.03;;
18526;SDS011;9393;42.158;24.748;2023-06-14T03:51:28;6.18;;;5.07;;
18526;SDS011;9393;42.158;24.748;2023-06-14T03:54:32;9.55;;;5.28;;
18526;SDS011;9393;42.158;24.748;2023-06-14T03:57:41;9.43;;;5.32;;
18526;SDS011;9393;42.158;24.748;2023-06-14T04:00:49;7.00;;;5.55;;
18526;SDS011;9393;42.158;24.748;2023-06-14T04:03:54;11.00;;;6.22;;
18526;SDS011;9393;42.158;24.748;2023-06-14T04:07:00;7.93;;;5.55;;
18526;SDS011;9393;42.158;24.748;2023-06-14T04:10:06;10.43;;;6.13;;
18526;SDS011;9393;42.158;24.748;2023-06-14T04:13:12;8.65;;;6.20;;
18526;SDS011;9393;42.158;24.748;2023-06-14T04:16:17;11.15;;;6.75;;
18526;SDS011;9393;42.158;24.748;2023-06-14T04:19:21;15.73;;;8.43;;
18526;SDS011;9393;42.158;24.748;2023-06-14T04:22:25;10.07;;;5.85;;
18526;SDS011;9393;42.158;24.748;2023-06-14T04:25:32;12.30;;;5.82;;
18526;SDS011;9393;42.158;24.748;2023-06-14T04:28:39;7.70;;;5.40;;
18526;SDS011;9393;42.158;24.748;2023-06-14T04:31:45;7.22;;;5.57;;
18526;SDS011;9393;42.158;24.748;2023-06-14T04:34:51;12.05;;;6.50;;
18526;SDS011;9393;42.158;24.748;2023-06-14T04:37:57;9.98;;;5.60;;
18526;SDS011;9393;42.158;24.748;2023-06-14T04:41:02;16.45;;;8.00;;
18526;SDS011;9393;42.158;24.748;2023-06-14T04:44:08;11.80;;;6.85;;
18526;SDS011;9393;42.158;24.748;2023-06-14T04:47:16;14.02;;;7.20;;
18526;SDS011;9393;42.158;24.748;2023-06-14T04:50:20;12.13;;;7.20;;
18526;SDS011;9393;42.158;24.748;2023-06-14T04:53:25;11.32;;;7.25;;
18526;SDS011;9393;42.158;24.748;2023-06-14T04:56:31;12.50;;;7.85;;
18526;SDS011;9393;42.158;24.748;2023-06-14T04:59:38;11.32;;;7.60;;
18526;SDS011;9393;42.158;24.748;2023-06-14T05:02:42;11.93;;;7.28;;
18526;SDS011;9393;42.158;24.748;2023-06-14T05:05:47;10.02;;;7.47;;
18526;SDS011;9393;42.158;24.748;2023-06-14T05:08:52;15.07;;;7.47;;
18526;SDS011;9393;42.158;24.748;2023-06-14T05:11:57;14.48;;;8.30;;
18526;SDS011;9393;42.158;24.748;2023-06-14T05:15:04;11.88;;;8.32;;
18526;SDS011;9393;42.158;24.748;2023-06-14T05:18:11;13.10;;;7.82;;
18526;SDS011;9393;42.158;24.748;2023-06-14T05:21:15;13.63;;;7.53;;
18526;SDS011;9393;42.158;24.748;2023-06-14T05:24:20;8.77;;;7.70;;
18526;SDS011;9393;42.158;24.748;2023-06-14T05:27:25;14.73;;;7.60;;
18526;SDS011;9393;42.158;24.748;2023-06-14T05:30:30;16.13;;;8.30;;
18526;SDS011;9393;42.158;24.748;2023-06-14T05:33:35;12.75;;;7.82;;
18526;SDS011;9393;42.158;24.748;2023-06-14T05:36:39;13.73;;;8.27;;
18526;SDS011;9393;42.158;24.748;2023-06-14T05:39:43;11.32;;;9.38;;
18526;SDS011;9393;42.158;24.748;2023-06-14T05:42:48;13.98;;;8.80;;
18526;SDS011;9393;42.158;24.748;2023-06-14T05:45:54;10.65;;;8.30;;
18526;SDS011;9393;42.158;24.748;2023-06-14T05:48:58;12.10;;;9.13;;
18526;SDS011;9393;42.158;24.748;2023-06-14T05:52:02;16.20;;;9.35;;
18526;SDS011;9393;42.158;24.748;2023-06-14T05:55:07;16.80;;;9.77;;
18526;SDS011;9393;42.158;24.748;2023-06-14T05:58:15;15.48;;;9.95;;
18526;SDS011;9393;42.158;24.748;2023-06-14T06:01:20;15.95;;;10.60;;
18526;SDS011;9393;42.158;24.748;2023-06-14T06:04:25;13.40;;;10.07;;
18526;SDS011;9393;42.158;24.748;2023-06-14T06:07:29;14.75;;;10.35;;
18526;SDS011;9393;42.158;24.748;2023-06-14T06:10:33;15.27;;;9.80;;
18526;SDS011;9393;42.158;24.748;2023-06-14T06:13:37;17.58;;;10.23;;
18526;SDS011;9393;42.158;24.748;2023-06-14T06:16:44;16.52;;;10.90;;
18526;SDS011;9393;42.158;24.748;2023-06-14T06:19:49;12.50;;;9.60;;
18526;SDS011;9393;42.158;24.748;2023-06-14T06:22:53;14.40;;;9.93;;
18526;SDS011;9393;42.158;24.748;2023-06-14T06:25:57;13.93;;;9.80;;
18526;SDS011;9393;42.158;24.748;2023-06-14T06:29:01;14.63;;;9.55;;
18526;SDS011;9393;42.158;24.748;2023-06-14T06:32:07;15.00;;;9.43;;
18526;SDS011;9393;42.158;24.748;2023-06-14T06:35:12;13.10;;;9.82;;
18526;SDS011;9393;42.158;24.748;2023-06-14T06:38:16;11.95;;;9.23;;
18526;SDS011;9393;42.158;24.748;2023-06-14T06:41:21;11.73;;;9.05;;
18526;SDS011;9393;42.158;24.748;2023-06-14T06:44:25;11.65;;;8.75;;
18526;SDS011;9393;42.158;24.748;2023-06-14T06:47:31;11.05;;;9.13;;
18526;SDS011;9393;42.158;24.748;2023-06-14T06:50:36;15.20;;;10.82;;
18526;SDS011;9393;42.158;24.748;2023-06-14T06:53:41;12.52;;;10.30;;
18526;SDS011;9393;42.158;24.748;2023-06-14T06:56:51;13.68;;;9.90;;
18526;SDS011;9393;42.158;24.748;2023-06-14T06:59:55;15.02;;;11.07;;
18526;SDS011;9393;42.158;24.748;2023-06-14T07:03:02;13.95;;;11.10;;
18526;SDS011;9393;42.158;24.748;2023-06-14T07:06:06;17.77;;;12.35;;
18526;SDS011;9393;42.158;24.748;2023-06-14T07:09:11;17.55;;;12.88;;
18526;SDS011;9393;42.158;24.748;2023-06-14T07:12:16;16.73;;;12.40;;
18526;SDS011;9393;42.158;24.748;2023-06-14T07:15:21;18.33;;;13.23;;
18526;SDS011;9393;42.158;24.748;2023-06-14T07:18:26;18.00;;;12.02;;
18526;SDS011;9393;42.158;24.748;2023-06-14T07:21:31;15.80;;;11.65;;
18526;SDS011;9393;42.158;24.748;2023-06-14T07:24:35;18.52;;;12.23;;
18526;SDS011;9393;42.158;24.748;2023-06-14T07:27:39;15.57;;;10.90;;
18526;SDS011;9393;42.158;24.748;2023-06-14T07:30:44;22.27;;;10.75;;
18526;SDS011;9393;42.158;24.748;2023-06-14T07:33:49;14.60;;;11.13;;
18526;SDS011;9393;42.158;24.748;2023-06-14T07:36:54;12.48;;;9.60;;
18526;SDS011;9393;42.158;24.748;2023-06-14T07:39:58;13.23;;;10.02;;
18526;SDS011;9393;42.158;24.748;2023-06-14T07:43:02;13.50;;;10.73;;
18526;SDS011;9393;42.158;24.748;2023-06-14T07:46:07;11.57;;;9.52;;
18526;SDS011;9393;42.158;24.748;2023-06-14T07:49:13;12.48;;;9.32;;
18526;SDS011;9393;42.158;24.748;2023-06-14T07:52:18;11.00;;;9.18;;
18526;SDS011;9393;42.158;24.748;2023-06-14T07:55:22;11.80;;;9.52;;
18526;SDS011;9393;42.158;24.748;2023-06-14T07:58:27;14.75;;;8.85;;
18526;SDS011;9393;42.158;24.748;2023-06-14T08:01:31;9.63;;;8.30;;
18526;SDS011;9393;42.158;24.748;2023-06-14T08:04:37;10.60;;;8.20;;
18526;SDS011;9393;42.158;24.748;2023-06-14T08:07:42;14.13;;;8.82;;
18526;SDS011;9393;42.158;24.748;2023-06-14T08:10:47;11.55;;;8.10;;
18526;SDS011;9393;42.158;24.748;2023-06-14T08:13:51;10.43;;;7.97;;
18526;SDS011;9393;42.158;24.748;2023-06-14T08:16:55;12.50;;;8.77;;
18526;SDS011;9393;42.158;24.748;2023-06-14T08:20:01;10.75;;;7.95;;
18526;SDS011;9393;42.158;24.748;2023-06-14T08:23:06;12.73;;;8.77;;
18526;SDS011;9393;42.158;24.748;2023-06-14T08:26:11;12.57;;;8.57;;
18526;SDS011;9393;42.158;24.748;2023-06-14T08:29:15;12.82;;;8.95;;
18526;SDS011;9393;42.158;24.748;2023-06-14T08:32:19;12.70;;;8.70;;
18526;SDS011;9393;42.158;24.748;2023-06-14T08:35:25;13.95;;;9.23;;
18526;SDS011;9393;42.158;24.748;2023-06-14T08:38:29;14.55;;;8.98;;
18526;SDS011;9393;42.158;24.748;2023-06-14T08:41:34;12.88;;;9.68;;
18526;SDS011;9393;42.158;24.748;2023-06-14T08:44:39;10.20;;;9.20;;
18526;SDS011;9393;42.158;24.748;2023-06-14T08:47:43;12.02;;;10.23;;
18526;SDS011;9393;42.158;24.748;2023-06-14T08:50:56;14.90;;;10.57;;
18526;SDS011;9393;42.158;24.748;2023-06-14T08:54:04;13.90;;;9.07;;
18526;SDS011;9393;42.158;24.748;2023-06-14T08:57:09;15.52;;;11.13;;
18526;SDS011;9393;42.158;24.748;2023-06-14T09:00:17;13.00;;;10.18;;
18526;SDS011;9393;42.158;24.748;2023-06-14T09:03:23;12.88;;;9.75;;
18526;SDS011;9393;42.158;24.748;2023-06-14T09:06:33;11.57;;;8.90;;
18526;SDS011;9393;42.158;24.748;2023-06-14T09:09:39;10.75;;;9.23;;
18526;SDS011;9393;42.158;24.748;2023-06-14T09:13:03;12.02;;;9.98;;
18526;SDS011;9393;42.158;24.748;2023-06-14T09:16:07;16.40;;;11.02;;
18526;SDS011;9393;42.158;24.748;2023-06-14T09:19:13;13.93;;;9.48;;
18526;SDS011;9393;42.158;24.748;2023-06-14T09:22:26;14.25;;;9.05;;
18526;SDS011;9393;42.158;24.748;2023-06-14T09:25:36;12.05;;;9.20;;
18526;SDS011;9393;42.158;24.748;2023-06-14T09:28:47;10.57;;;9.48;;
18526;SDS011;9393;42.158;24.748;2023-06-14T09:31:52;11.98;;;9.80;;
18526;SDS011;9393;42.158;24.748;2023-06-14T09:34:56;9.88;;;8.80;;
18526;SDS011;9393;42.158;24.748;2023-06-14T09:38:03;12.55;;;8.35;;
18526;SDS011;9393;42.158;24.748;2023-06-14T09:41:09;10.35;;;9.10;;
18526;SDS011;9393;42.158;24.748;2023-06-14T09:44:13;10.55;;;9.10;;
18526;SDS011;9393;42.158;24.748;2023-06-14T09:47:23;12.13;;;9.07;;
18526;SDS011;9393;42.158;24.748;2023-06-14T09:50:27;10.75;;;9.65;;
18526;SDS011;9393;42.158;24.748;2023-06-14T09:53:33;10.20;;;9.23;;
18526;SDS011;9393;42.158;24.748;2023-06-14T09:56:41;10.60;;;9.55;;
18526;SDS011;9393;42.158;24.748;2023-06-14T09:59:48;11.18;;;9.57;;
18526;SDS011;9393;42.158;24.748;2023-06-14T10:02:58;11.93;;;8.80;;
18526;SDS011;9393;42.158;24.748;2023-06-14T10:06:07;10.25;;;9.25;;
18526;SDS011;9393;42.158;24.748;2023-06-14T10:09:14;12.07;;;9.80;;
18526;SDS011;9393;42.158;24.748;2023-06-14T10:12:18;12.40;;;9.85;;
18526;SDS011;9393;42.158;24.748;2023-06-14T10:15:27;11.43;;;10.23;;
18526;SDS011;9393;42.158;24.748;2023-06-14T10:18:39;10.95;;;9.85;;
18526;SDS011;9393;42.158;24.748;2023-06-14T10:21:51;11.80;;;10.38;;
18526;SDS011;9393;42.158;24.748;2023-06-14T10:25:10;14.82;;;10.68;;
18526;SDS011;9393;42.158;24.748;2023-06-14T10:28:17;14.35;;;10.75;;
18526;SDS011;9393;42.158;24.748;2023-06-14T10:31:21;16.70;;;12.15;;
18526;SDS011;9393;42.158;24.748;2023-06-14T10:34:26;15.05;;;12.57;;
18526;SDS011;9393;42.158;24.748;2023-06-14T10:37:32;17.70;;;12.02;;
18526;SDS011;9393;42.158;24.748;2023-06-14T10:40:39;15.98;;;10.90;;
18526;SDS011;9393;42.158;24.748;2023-06-14T10:43:46;16.30;;;11.27;;
18526;SDS011;9393;42.158;24.748;2023-06-14T10:46:52;10.40;;;9.40;;
18526;SDS011;9393;42.158;24.748;2023-06-14T10:49:57;14.90;;;10.98;;
18526;SDS011;9393;42.158;24.748;2023-06-14T10:53:21;15.27;;;10.88;;
18526;SDS011;9393;42.158;24.748;2023-06-14T10:56:31;12.02;;;10.82;;
18526;SDS011;9393;42.158;24.748;2023-06-14T10:59:36;11.40;;;10.20;;
18526;SDS011;9393;42.158;24.748;2023-06-14T11:06:21;13.90;;;11.23;;
18526;SDS011;9393;42.158;24.748;2023-06-14T11:12:57;16.23;;;12.05;;
18526;SDS011;9393;42.158;24.748;2023-06-14T11:16:03;11.27;;;9.20;;
18526;SDS011;9393;42.158;24.748;2023-06-14T11:19:14;12.23;;;10.65;;
18526;SDS011;9393;42.158;24.748;2023-06-14T11:22:19;13.73;;;10.50;;
18526;SDS011;9393;42.158;24.748;2023-06-14T11:25:24;13.68;;;10.00;;
18526;SDS011;9393;42.158;24.748;2023-06-14T11:28:37;13.15;;;10.23;;
18526;SDS011;9393;42.158;24.748;2023-06-14T11:31:43;11.10;;;9.52;;
18526;SDS011;9393;42.158;24.748;2023-06-14T11:34:48;16.70;;;10.57;;
18526;SDS011;9393;42.158;24.748;2023-06-14T11:37:53;13.20;;;10.05;;
18526;SDS011;9393;42.158;24.748;2023-06-14T11:40:59;13.68;;;10.32;;
18526;SDS011;9393;42.158;24.748;2023-06-14T11:44:05;17.00;;;10.38;;
18526;SDS011;9393;42.158;24.748;2023-06-14T11:47:10;14.25;;;9.50;;
18526;SDS011;9393;42.158;24.748;2023-06-14T11:50:15;11.65;;;9.65;;
18526;SDS011;9393;42.158;24.748;2023-06-14T11:53:19;17.10;;;10.30;;
18526;SDS011;9393;42.158;24.748;2023-06-14T11:56:23;15.90;;;10.55;;
18526;SDS011;9393;42.158;24.748;2023-06-14T11:59:30;13.20;;;11.00;;
18526;SDS011;9393;42.158;24.748;2023-06-14T12:02:34;11.95;;;10.52;;
18526;SDS011;9393;42.158;24.748;2023-06-14T12:05:39;11.68;;;10.40;;
18526;SDS011;9393;42.158;24.748;2023-06-14T12:08:43;11.80;;;10.60;;
18526;SDS011;9393;42.158;24.748;2023-06-14T12:11:51;12.88;;;10.80;;
18526;SDS011;9393;42.158;24.748;2023-06-14T12:15:07;12.07;;;10.88;;
18526;SDS011;9393;42.158;24.748;2023-06-14T12:18:14;11.90;;;10.55;;
18526;SDS011;9393;42.158;24.748;2023-06-14T12:21:22;13.65;;;10.80;;
18526;SDS011;9393;42.158;24.748;2023-06-14T12:24:28;18.85;;;12.00;;
18526;SDS011;9393;42.158;24.748;2023-06-14T12:27:32;12.02;;;10.35;;
18526;SDS011;9393;42.158;24.748;2023-06-14T12:30:38;13.43;;;11.98;;
18526;SDS011;9393;42.158;24.748;2023-06-14T12:33:42;13.27;;;11.75;;
18526;SDS011;9393;42.158;24.748;2023-06-14T12:36:48;17.20;;;11.70;;
18526;SDS011;9393;42.158;24.748;2023-06-14T12:39:53;12.85;;;11.57;;
18526;SDS011;9393;42.158;24.748;2023-06-14T12:42:57;12.05;;;10.68;;
18526;SDS011;9393;42.158;24.748;2023-06-14T12:46:03;12.95;;;11.43;;
18526;SDS011;9393;42.158;24.748;2023-06-14T12:49:07;14.55;;;11.13;;
18526;SDS011;9393;42.158;24.748;2023-06-14T12:52:13;12.88;;;11.27;;
18526;SDS011;9393;42.158;24.748;2023-06-14T12:55:17;12.45;;;11.23;;
18526;SDS011;9393;42.158;24.748;2023-06-14T12:58:22;14.18;;;11.10;;
18526;SDS011;9393;42.158;24.748;2023-06-14T13:01:28;15.10;;;11.52;;
18526;SDS011;9393;42.158;24.748;2023-06-14T13:04:32;13.25;;;11.57;;
18526;SDS011;9393;42.158;24.748;2023-06-14T13:07:36;14.63;;;11.43;;
18526;SDS011;9393;42.158;24.748;2023-06-14T13:10:40;16.27;;;11.95;;
18526;SDS011;9393;42.158;24.748;2023-06-14T13:13:44;11.75;;;10.32;;
18526;SDS011;9393;42.158;24.748;2023-06-14T13:16:50;14.60;;;10.75;;
18526;SDS011;9393;42.158;24.748;2023-06-14T13:19:54;11.52;;;9.90;;
18526;SDS011;9393;42.158;24.748;2023-06-14T13:22:59;13.35;;;9.65;;
18526;SDS011;9393;42.158;24.748;2023-06-14T13:26:04;12.60;;;9.85;;
18526;SDS011;9393;42.158;24.748;2023-06-14T13:29:08;11.98;;;10.73;;
18526;SDS011;9393;42.158;24.748;2023-06-14T13:32:14;12.70;;;11.38;;
18526;SDS011;9393;42.158;24.748;2023-06-14T13:35:18;12.88;;;11.57;;
18526;SDS011;9393;42.158;24.748;2023-06-14T13:38:23;15.23;;;11.73;;
18526;SDS011;9393;42.158;24.748;2023-06-14T13:41:27;15.18;;;11.15;;
18526;SDS011;9393;42.158;24.748;2023-06-14T13:44:34;12.52;;;11.23;;
18526;SDS011;9393;42.158;24.748;2023-06-14T13:47:40;18.63;;;12.73;;
18526;SDS011;9393;42.158;24.748;2023-06-14T13:50:44;11.75;;;10.55;;
18526;SDS011;9393;42.158;24.748;2023-06-14T13:53:48;12.10;;;10.90;;
18526;SDS011;9393;42.158;24.748;2023-06-14T13:56:53;16.55;;;11.30;;
18526;SDS011;9393;42.158;24.748;2023-06-14T13:59:57;15.15;;;10.90;;
18526;SDS011;9393;42.158;24.748;2023-06-14T14:03:17;15.45;;;10.82;;
18526;SDS011;9393;42.158;24.748;2023-06-14T14:06:22;12.70;;;11.23;;
18526;SDS011;9393;42.158;24.748;2023-06-14T14:09:26;11.45;;;10.25;;
18526;SDS011;9393;42.158;24.748;2023-06-14T14:12:30;9.88;;;8.80;;
18526;SDS011;9393;42.158;24.748;2023-06-14T14:15:35;9.02;;;7.45;;
18526;SDS011;9393;42.158;24.748;2023-06-14T14:18:40;11.40;;;7.47;;
18526;SDS011;9393;42.158;24.748;2023-06-14T14:21:45;7.70;;;6.32;;
18526;SDS011;9393;42.158;24.748;2023-06-14T14:24:49;8.45;;;6.15;;
18526;SDS011;9393;42.158;24.748;2023-06-14T14:27:53;6.63;;;5.95;;
18526;SDS011;9393;42.158;24.748;2023-06-14T14:30:58;8.90;;;6.47;;
18526;SDS011;9393;42.158;24.748;2023-06-14T14:34:04;8.52;;;5.85;;
18526;SDS011;9393;42.158;24.748;2023-06-14T14:37:08;6.82;;;6.22;;
18526;SDS011;9393;42.158;24.748;2023-06-14T14:40:12;10.18;;;6.32;;
18526;SDS011;9393;42.158;24.748;2023-06-14T14:43:17;9.40;;;5.60;;
18526;SDS011;9393;42.158;24.748;2023-06-14T14:46:21;5.22;;;4.72;;
18526;SDS011;9393;42.158;24.748;2023-06-14T14:49:27;8.23;;;4.68;;
18526;SDS011;9393;42.158;24.748;2023-06-14T14:52:31;5.82;;;4.43;;
18526;SDS011;9393;42.158;24.748;2023-06-14T14:55:35;6.28;;;4.93;;
18526;SDS011;9393;42.158;24.748;2023-06-14T14:58:41;4.90;;;4.40;;
18526;SDS011;9393;42.158;24.748;2023-06-14T15:01:46;5.45;;;4.18;;
18526;SDS011;9393;42.158;24.748;2023-06-14T15:04:51;6.93;;;4.38;;
18526;SDS011;9393;42.158;24.748;2023-06-14T15:07:56;9.23;;;4.30;;
18526;SDS011;9393;42.158;24.748;2023-06-14T15:11:00;5.43;;;4.15;;
18526;SDS011;9393;42.158;24.748;2023-06-14T15:14:05;4.90;;;4.25;;
18526;SDS011;9393;42.158;24.748;2023-06-14T15:17:09;4.43;;;4.05;;
18526;SDS011;9393;42.158;24.748;2023-06-14T15:20:15;5.85;;;4.70;;
18526;SDS011;9393;42.158;24.748;2023-06-14T15:23:19;5.10;;;4.10;;
18526;SDS011;9393;42.158;24.748;2023-06-14T15:26:24;4.85;;;4.40;;
18526;SDS011;9393;42.158;24.748;2023-06-14T15:29:29;6.35;;;4.20;;
18526;SDS011;9393;42.158;24.748;2023-06-14T15:32:33;5.10;;;4.65;;
18526;SDS011;9393;42.158;24.748;2023-06-14T15:35:39;5.25;;;4.65;;
18526;SDS011;9393;42.158;24.748;2023-06-14T15:38:43;7.97;;;5.30;;
18526;SDS011;9393;42.158;24.748;2023-06-14T15:41:48;12.73;;;5.53;;
18526;SDS011;9393;42.158;24.748;2023-06-14T15:44:53;7.53;;;5.05;;
18526;SDS011;9393;42.158;24.748;2023-06-14T15:47:57;8.05;;;5.07;;
18526;SDS011;9393;42.158;24.748;2023-06-14T15:51:03;7.03;;;5.63;;
18526;SDS011;9393;42.158;24.748;2023-06-14T15:54:07;7.72;;;5.35;;
18526;SDS011;9393;42.158;24.748;2023-06-14T15:57:11;5.40;;;4.63;;
18526;SDS011;9393;42.158;24.748;2023-06-14T16:00:16;7.63;;;4.65;;
18526;SDS011;9393;42.158;24.748;2023-06-14T16:03:21;8.10;;;4.63;;
18526;SDS011;9393;42.158;24.748;2023-06-14T16:06:27;6.93;;;4.55;;
18526;SDS011;9393;42.158;24.748;2023-06-14T16:09:31;5.75;;;4.30;;
18526;SDS011;9393;42.158;24.748;2023-06-14T16:12:36;6.45;;;4.25;;
18526;SDS011;9393;42.158;24.748;2023-06-14T16:15:40;16.50;;;4.88;;
18526;SDS011;9393;42.158;24.748;2023-06-14T16:18:44;7.88;;;4.63;;
18526;SDS011;9393;42.158;24.748;2023-06-14T16:21:50;7.18;;;4.55;;
18526;SDS011;9393;42.158;24.748;2023-06-14T16:24:54;12.88;;;5.32;;
18526;SDS011;9393;42.158;24.748;2023-06-14T16:27:58;7.03;;;4.53;;
18526;SDS011;9393;42.158;24.748;2023-06-14T16:31:02;5.88;;;3.97;;
18526;SDS011;9393;42.158;24.748;2023-06-14T16:34:07;6.43;;;4.00;;
18526;SDS011;9393;42.158;24.748;2023-06-14T16:37:15;6.70;;;4.47;;
18526;SDS011;9393;42.158;24.748;2023-06-14T16:40:19;4.88;;;3.85;;
18526;SDS011;9393;42.158;24.748;2023-06-14T16:43:23;8.05;;;4.35;;
18526;SDS011;9393;42.158;24.748;2023-06-14T16:46:27;4.70;;;4.00;;
18526;SDS011;9393;42.158;24.748;2023-06-14T16:49:33;4.78;;;3.95;;
18526;SDS011;9393;42.158;24.748;2023-06-14T16:52:39;4.30;;;3.88;;
18526;SDS011;9393;42.158;24.748;2023-06-14T16:55:43;3.92;;;3.53;;
18526;SDS011;9393;42.158;24.748;2023-06-14T16:58:47;4.93;;;4.10;;
18526;SDS011;9393;42.158;24.748;2023-06-14T17:01:51;5.70;;;4.35;;
18526;SDS011;9393;42.158;24.748;2023-06-14T17:04:55;3.80;;;3.50;;
18526;SDS011;9393;42.158;24.748;2023-06-14T17:08:01;5.53;;;3.70;;
18526;SDS011;9393;42.158;24.748;2023-06-14T17:11:05;5.78;;;4.53;;
18526;SDS011;9393;42.158;24.748;2023-06-14T17:14:10;6.13;;;4.28;;
18526;SDS011;9393;42.158;24.748;2023-06-14T17:17:14;4.40;;;3.97;;
18526;SDS011;9393;42.158;24.748;2023-06-14T17:20:18;5.20;;;4.28;;
18526;SDS011;9393;42.158;24.748;2023-06-14T17:23:25;7.22;;;4.38;;
18526;SDS011;9393;42.158;24.748;2023-06-14T17:26:29;5.30;;;4.65;;
18526;SDS011;9393;42.158;24.748;2023-06-14T17:29:34;8.10;;;4.60;;
18526;SDS011;9393;42.158;24.748;2023-06-14T17:32:38;5.57;;;4.32;;
18526;SDS011;9393;42.158;24.748;2023-06-14T17:35:43;7.97;;;4.95;;
18526;SDS011;9393;42.158;24.748;2023-06-14T17:38:49;4.70;;;4.30;;
18526;SDS011;9393;42.158;24.748;2023-06-14T17:41:53;6.53;;;5.18;;
18526;SDS011;9393;42.158;24.748;2023-06-14T17:44:57;5.70;;;4.57;;
18526;SDS011;9393;42.158;24.748;2023-06-14T17:48:02;6.30;;;4.38;;
18526;SDS011;9393;42.158;24.748;2023-06-14T17:51:07;8.32;;;5.00;;
18526;SDS011;9393;42.158;24.748;2023-06-14T17:54:12;8.23;;;5.20;;
18526;SDS011;9393;42.158;24.748;2023-06-14T17:57:16;8.38;;;4.72;;
18526;SDS011;9393;42.158;24.748;2023-06-14T18:00:21;7.32;;;4.43;;
18526;SDS011;9393;42.158;24.748;2023-06-14T18:03:25;5.65;;;5.05;;
18526;SDS011;9393;42.158;24.748;2023-06-14T18:06:29;6.88;;;5.28;;
18526;SDS011;9393;42.158;24.748;2023-06-14T18:09:35;6.38;;;4.88;;
18526;SDS011;9393;42.158;24.748;2023-06-14T18:12:39;6.57;;;4.63;;
18526;SDS011;9393;42.158;24.748;2023-06-14T18:15:44;5.40;;;4.50;;
18526;SDS011;9393;42.158;24.748;2023-06-14T18:18:48;6.03;;;4.97;;
18526;SDS011;9393;42.158;24.748;2023-06-14T18:21:53;7.05;;;5.22;;
18526;SDS011;9393;42.158;24.748;2023-06-14T18:24:59;6.47;;;5.78;;
18526;SDS011;9393;42.158;24.748;2023-06-14T18:28:03;14.48;;;5.55;;
18526;SDS011;9393;42.158;24.748;2023-06-14T18:31:08;9.82;;;6.10;;
18526;SDS011;9393;42.158;24.748;2023-06-14T18:34:12;8.50;;;5.65;;